sensor_id;sensor_type;location;lat;lon;timestamp;P1;durP1;ratioP1;P2;durP2;ratioP2
76786;SDS011;65739;51.482;5.702;2023-02-15T00:17:26;45.13;;;22.30;;
76786;SDS011;65739;51.482;5.702;2023-02-15T00:20:38;48.17;;;23.17;;
76786;SDS011;65739;51.482;5.702;2023-02-15T00:24:01;49.97;;;24.00;;
76786;SDS011;65739;51.482;5.702;2023-02-15T00:33:41;48.70;;;23.58;;
76786;SDS011;65739;51.482;5.702;2023-02-15T00:36:22;53.03;;;24.20;;
76786;SDS011;65739;51.482;5.702;2023-02-15T00:42:02;46.10;;;22.40;;
76786;SDS011;65739;51.482;5.702;2023-02-15T00:44:28;52.40;;;24.42;;
76786;SDS011;65739;51.482;5.702;2023-02-15T00:50:53;45.97;;;23.35;;
76786;SDS011;65739;51.482;5.702;2023-02-15T00:53:51;60.28;;;23.65;;
76786;SDS011;65739;51.482;5.702;2023-02-15T00:57:00;54.53;;;22.90;;
76786;SDS011;65739;51.482;5.702;2023-02-15T00:59:37;47.50;;;22.73;;
76786;SDS011;65739;51.482;5.702;2023-02-15T01:05:48;52.42;;;22.85;;
76786;SDS011;65739;51.482;5.702;2023-02-15T01:12:52;49.45;;;22.85;;
76786;SDS011;65739;51.482;5.702;2023-02-15T01:15:17;49.47;;;22.85;;
76786;SDS011;65739;51.482;5.702;2023-02-15T01:17:55;45.38;;;22.60;;
76786;SDS011;65739;51.482;5.702;2023-02-15T01:30:25;42.78;;;20.98;;
76786;SDS011;65739;51.482;5.702;2023-02-15T01:33:30;46.75;;;21.67;;
76786;SDS011;65739;51.482;5.702;2023-02-15T01:36:28;44.85;;;22.50;;
76786;SDS011;65739;51.482;5.702;2023-02-15T01:39:28;52.35;;;21.98;;
76786;SDS011;65739;51.482;5.702;2023-02-15T01:42:31;54.72;;;21.63;;
76786;SDS011;65739;51.482;5.702;2023-02-15T01:52:09;46.65;;;20.77;;
76786;SDS011;65739;51.482;5.702;2023-02-15T01:57:44;44.28;;;21.20;;
76786;SDS011;65739;51.482;5.702;2023-02-15T02:00:34;46.40;;;21.40;;
76786;SDS011;65739;51.482;5.702;2023-02-15T02:07:39;41.47;;;20.23;;
76786;SDS011;65739;51.482;5.702;2023-02-15T02:14:36;43.92;;;20.48;;
76786;SDS011;65739;51.482;5.702;2023-02-15T02:24:12;36.72;;;19.15;;
76786;SDS011;65739;51.482;5.702;2023-02-15T02:30:34;46.30;;;20.13;;
76786;SDS011;65739;51.482;5.702;2023-02-15T02:42:48;46.97;;;20.55;;
76786;SDS011;65739;51.482;5.702;2023-02-15T02:45:32;46.97;;;20.92;;
76786;SDS011;65739;51.482;5.702;2023-02-15T02:48:25;43.05;;;19.42;;
76786;SDS011;65739;51.482;5.702;2023-02-15T02:50:58;43.42;;;19.33;;
76786;SDS011;65739;51.482;5.702;2023-02-15T02:53:46;40.67;;;19.65;;
76786;SDS011;65739;51.482;5.702;2023-02-15T02:57:06;45.03;;;20.48;;
76786;SDS011;65739;51.482;5.702;2023-02-15T02:59:55;46.20;;;20.03;;
76786;SDS011;65739;51.482;5.702;2023-02-15T03:02:42;42.38;;;19.50;;
76786;SDS011;65739;51.482;5.702;2023-02-15T03:40:48;46.53;;;20.10;;
76786;SDS011;65739;51.482;5.702;2023-02-15T03:47:49;43.30;;;19.08;;
76786;SDS011;65739;51.482;5.702;2023-02-15T03:50:38;40.60;;;18.17;;
76786;SDS011;65739;51.482;5.702;2023-02-15T03:56:58;48.80;;;19.77;;
76786;SDS011;65739;51.482;5.702;2023-02-15T04:00:22;49.35;;;19.30;;
76786;SDS011;65739;51.482;5.702;2023-02-15T04:06:40;40.42;;;18.48;;
76786;SDS011;65739;51.482;5.702;2023-02-15T04:10:00;45.00;;;19.53;;
76786;SDS011;65739;51.482;5.702;2023-02-15T04:13:02;44.10;;;18.47;;
76786;SDS011;65739;51.482;5.702;2023-02-15T04:16:11;38.45;;;17.92;;
76786;SDS011;65739;51.482;5.702;2023-02-15T05:02:36;48.42;;;18.85;;
76786;SDS011;65739;51.482;5.702;2023-02-15T05:09:00;42.08;;;19.33;;
76786;SDS011;65739;51.482;5.702;2023-02-15T05:15:30;43.63;;;19.63;;
76786;SDS011;65739;51.482;5.702;2023-02-15T05:18:11;45.55;;;20.70;;
76786;SDS011;65739;51.482;5.702;2023-02-15T05:21:43;43.45;;;19.30;;
76786;SDS011;65739;51.482;5.702;2023-02-15T05:41:45;51.03;;;20.98;;
76786;SDS011;65739;51.482;5.702;2023-02-15T06:02:15;48.60;;;20.85;;
76786;SDS011;65739;51.482;5.702;2023-02-15T06:05:32;54.95;;;22.65;;
76786;SDS011;65739;51.482;5.702;2023-02-15T06:38:42;56.22;;;22.10;;
76786;SDS011;65739;51.482;5.702;2023-02-15T06:41:46;53.83;;;21.75;;
76786;SDS011;65739;51.482;5.702;2023-02-15T06:45:00;53.55;;;21.73;;
76786;SDS011;65739;51.482;5.702;2023-02-15T06:55:49;55.22;;;21.77;;
76786;SDS011;65739;51.482;5.702;2023-02-15T06:58:55;55.53;;;20.90;;
76786;SDS011;65739;51.482;5.702;2023-02-15T07:01:44;55.97;;;23.13;;
76786;SDS011;65739;51.482;5.702;2023-02-15T07:04:59;57.95;;;22.88;;
76786;SDS011;65739;51.482;5.702;2023-02-15T07:07:46;60.97;;;22.33;;
76786;SDS011;65739;51.482;5.702;2023-02-15T07:10:21;59.90;;;23.65;;
76786;SDS011;65739;51.482;5.702;2023-02-15T07:32:15;66.72;;;25.33;;
76786;SDS011;65739;51.482;5.702;2023-02-15T07:38:43;68.93;;;25.88;;
76786;SDS011;65739;51.482;5.702;2023-02-15T07:49:00;67.30;;;27.67;;
76786;SDS011;65739;51.482;5.702;2023-02-15T07:54:49;71.85;;;27.85;;
76786;SDS011;65739;51.482;5.702;2023-02-15T08:01:09;69.20;;;28.77;;
76786;SDS011;65739;51.482;5.702;2023-02-15T08:03:44;79.55;;;29.38;;
76786;SDS011;65739;51.482;5.702;2023-02-15T08:10:53;79.22;;;31.15;;
76786;SDS011;65739;51.482;5.702;2023-02-15T08:17:31;75.10;;;30.30;;
76786;SDS011;65739;51.482;5.702;2023-02-15T08:20:28;72.47;;;29.45;;
76786;SDS011;65739;51.482;5.702;2023-02-15T08:29:50;60.53;;;28.65;;
76786;SDS011;65739;51.482;5.702;2023-02-15T10:06:32;33.50;;;18.70;;
76786;SDS011;65739;51.482;5.702;2023-02-15T10:09:13;35.05;;;18.27;;
76786;SDS011;65739;51.482;5.702;2023-02-15T10:20:26;32.13;;;18.27;;
76786;SDS011;65739;51.482;5.702;2023-02-15T10:23:07;38.70;;;19.90;;
76786;SDS011;65739;51.482;5.702;2023-02-15T10:28:51;34.25;;;18.52;;
76786;SDS011;65739;51.482;5.702;2023-02-15T10:31:27;33.40;;;18.25;;
76786;SDS011;65739;51.482;5.702;2023-02-15T10:34:14;39.28;;;18.92;;
76786;SDS011;65739;51.482;5.702;2023-02-15T10:40:00;32.88;;;18.85;;
76786;SDS011;65739;51.482;5.702;2023-02-15T10:42:37;34.67;;;19.00;;
76786;SDS011;65739;51.482;5.702;2023-02-15T10:45:27;34.13;;;18.40;;
76786;SDS011;65739;51.482;5.702;2023-02-15T10:48:23;34.05;;;18.92;;
76786;SDS011;65739;51.482;5.702;2023-02-15T10:51:03;35.67;;;19.20;;
76786;SDS011;65739;51.482;5.702;2023-02-15T10:56:44;30.60;;;17.35;;
76786;SDS011;65739;51.482;5.702;2023-02-15T11:02:03;33.30;;;18.75;;
76786;SDS011;65739;51.482;5.702;2023-02-15T11:05:02;31.55;;;18.48;;
76786;SDS011;65739;51.482;5.702;2023-02-15T11:07:45;36.72;;;19.33;;
76786;SDS011;65739;51.482;5.702;2023-02-15T11:10:22;34.72;;;18.08;;
76786;SDS011;65739;51.482;5.702;2023-02-15T11:12:55;35.28;;;18.38;;
76786;SDS011;65739;51.482;5.702;2023-02-15T11:15:29;30.63;;;17.73;;
76786;SDS011;65739;51.482;5.702;2023-02-15T11:18:05;30.08;;;17.77;;
76786;SDS011;65739;51.482;5.702;2023-02-15T11:20:42;31.88;;;17.63;;
76786;SDS011;65739;51.482;5.702;2023-02-15T11:23:16;32.00;;;18.80;;
76786;SDS011;65739;51.482;5.702;2023-02-15T11:25:47;35.25;;;18.23;;
76786;SDS011;65739;51.482;5.702;2023-02-15T11:28:27;37.22;;;18.88;;
76786;SDS011;65739;51.482;5.702;2023-02-15T11:31:02;34.70;;;17.55;;
76786;SDS011;65739;51.482;5.702;2023-02-15T11:33:38;31.80;;;17.58;;
76786;SDS011;65739;51.482;5.702;2023-02-15T11:38:49;29.40;;;17.98;;
76786;SDS011;65739;51.482;5.702;2023-02-15T11:41:22;29.70;;;18.15;;
76786;SDS011;65739;51.482;5.702;2023-02-15T11:46:36;29.75;;;18.65;;
76786;SDS011;65739;51.482;5.702;2023-02-15T11:49:20;30.80;;;18.20;;
76786;SDS011;65739;51.482;5.702;2023-02-15T11:51:50;32.13;;;18.58;;
76786;SDS011;65739;51.482;5.702;2023-02-15T11:54:18;33.72;;;18.48;;
76786;SDS011;65739;51.482;5.702;2023-02-15T11:56:48;33.88;;;19.13;;
76786;SDS011;65739;51.482;5.702;2023-02-15T11:59:17;30.83;;;18.42;;
76786;SDS011;65739;51.482;5.702;2023-02-15T12:01:49;30.98;;;18.42;;
76786;SDS011;65739;51.482;5.702;2023-02-15T12:04:23;34.65;;;19.70;;
76786;SDS011;65739;51.482;5.702;2023-02-15T12:06:58;34.10;;;18.33;;
76786;SDS011;65739;51.482;5.702;2023-02-15T12:09:30;35.70;;;18.08;;
76786;SDS011;65739;51.482;5.702;2023-02-15T12:12:45;28.60;;;15.73;;
76786;SDS011;65739;51.482;5.702;2023-02-15T12:14:54;33.90;;;18.85;;
76786;SDS011;65739;51.482;5.702;2023-02-15T12:22:39;31.05;;;17.65;;
76786;SDS011;65739;51.482;5.702;2023-02-15T12:25:29;31.13;;;17.92;;
76786;SDS011;65739;51.482;5.702;2023-02-15T12:28:15;32.30;;;17.92;;
76786;SDS011;65739;51.482;5.702;2023-02-15T12:31:49;29.98;;;17.50;;
76786;SDS011;65739;51.482;5.702;2023-02-15T12:34:16;30.52;;;17.42;;
76786;SDS011;65739;51.482;5.702;2023-02-15T12:36:53;28.48;;;16.27;;
76786;SDS011;65739;51.482;5.702;2023-02-15T12:39:24;33.72;;;17.42;;
76786;SDS011;65739;51.482;5.702;2023-02-15T12:44:22;32.85;;;17.73;;
76786;SDS011;65739;51.482;5.702;2023-02-15T12:49:33;35.53;;;17.27;;
76786;SDS011;65739;51.482;5.702;2023-02-15T12:52:01;30.02;;;16.80;;
76786;SDS011;65739;51.482;5.702;2023-02-15T12:54:51;30.38;;;17.00;;
76786;SDS011;65739;51.482;5.702;2023-02-15T13:02:34;28.75;;;16.55;;
76786;SDS011;65739;51.482;5.702;2023-02-15T13:05:25;30.17;;;17.00;;
76786;SDS011;65739;51.482;5.702;2023-02-15T13:07:56;29.20;;;17.00;;
76786;SDS011;65739;51.482;5.702;2023-02-15T13:10:25;32.50;;;16.33;;
76786;SDS011;65739;51.482;5.702;2023-02-15T13:12:54;34.47;;;17.08;;
76786;SDS011;65739;51.482;5.702;2023-02-15T13:15:41;33.00;;;17.88;;
76786;SDS011;65739;51.482;5.702;2023-02-15T13:18:16;29.73;;;17.17;;
76786;SDS011;65739;51.482;5.702;2023-02-15T13:20:48;32.60;;;17.50;;
76786;SDS011;65739;51.482;5.702;2023-02-15T13:23:50;29.15;;;16.50;;
76786;SDS011;65739;51.482;5.702;2023-02-15T13:26:11;30.92;;;16.73;;
76786;SDS011;65739;51.482;5.702;2023-02-15T13:28:46;29.95;;;17.63;;
76786;SDS011;65739;51.482;5.702;2023-02-15T13:31:15;29.08;;;16.70;;
76786;SDS011;65739;51.482;5.702;2023-02-15T13:33:44;35.45;;;17.17;;
76786;SDS011;65739;51.482;5.702;2023-02-15T13:36:18;31.50;;;16.85;;
76786;SDS011;65739;51.482;5.702;2023-02-15T13:38:55;34.00;;;17.50;;
76786;SDS011;65739;51.482;5.702;2023-02-15T13:41:25;31.98;;;15.65;;
76786;SDS011;65739;51.482;5.702;2023-02-15T13:44:03;32.92;;;16.27;;
76786;SDS011;65739;51.482;5.702;2023-02-15T13:46:52;31.00;;;16.27;;
76786;SDS011;65739;51.482;5.702;2023-02-15T13:52:42;34.97;;;18.20;;
76786;SDS011;65739;51.482;5.702;2023-02-15T13:57:56;30.80;;;16.70;;
76786;SDS011;65739;51.482;5.702;2023-02-15T14:00:44;28.63;;;15.85;;
76786;SDS011;65739;51.482;5.702;2023-02-15T14:03:25;31.60;;;15.90;;
76786;SDS011;65739;51.482;5.702;2023-02-15T14:08:53;29.73;;;15.35;;
76786;SDS011;65739;51.482;5.702;2023-02-15T14:20:41;31.33;;;15.48;;
76786;SDS011;65739;51.482;5.702;2023-02-15T14:22:57;34.40;;;16.30;;
76786;SDS011;65739;51.482;5.702;2023-02-15T14:25:45;29.33;;;15.20;;
76786;SDS011;65739;51.482;5.702;2023-02-15T14:28:19;37.53;;;16.00;;
76786;SDS011;65739;51.482;5.702;2023-02-15T14:30:53;28.55;;;15.20;;
76786;SDS011;65739;51.482;5.702;2023-02-15T14:35:45;31.58;;;15.38;;
76786;SDS011;65739;51.482;5.702;2023-02-15T14:38:29;35.88;;;15.75;;
76786;SDS011;65739;51.482;5.702;2023-02-15T14:46:38;30.50;;;15.65;;
76786;SDS011;65739;51.482;5.702;2023-02-15T14:49:21;32.50;;;15.52;;
76786;SDS011;65739;51.482;5.702;2023-02-15T14:56:43;31.38;;;16.13;;
76786;SDS011;65739;51.482;5.702;2023-02-15T14:59:17;36.13;;;16.10;;
76786;SDS011;65739;51.482;5.702;2023-02-15T15:01:58;30.55;;;15.93;;
76786;SDS011;65739;51.482;5.702;2023-02-15T15:04:40;32.63;;;15.35;;
76786;SDS011;65739;51.482;5.702;2023-02-15T15:07:22;29.65;;;15.32;;
76786;SDS011;65739;51.482;5.702;2023-02-15T15:10:23;35.42;;;16.05;;
76786;SDS011;65739;51.482;5.702;2023-02-15T15:13:00;28.17;;;14.73;;
76786;SDS011;65739;51.482;5.702;2023-02-15T15:15:54;30.98;;;14.70;;
76786;SDS011;65739;51.482;5.702;2023-02-15T15:21:09;32.80;;;15.70;;
76786;SDS011;65739;51.482;5.702;2023-02-15T15:23:39;34.47;;;15.77;;
76786;SDS011;65739;51.482;5.702;2023-02-15T15:26:22;35.97;;;16.02;;
76786;SDS011;65739;51.482;5.702;2023-02-15T15:31:20;35.00;;;16.13;;
76786;SDS011;65739;51.482;5.702;2023-02-15T15:37:00;38.70;;;16.80;;
76786;SDS011;65739;51.482;5.702;2023-02-15T15:46:27;36.72;;;16.00;;
76786;SDS011;65739;51.482;5.702;2023-02-15T15:49:00;31.58;;;16.27;;
76786;SDS011;65739;51.482;5.702;2023-02-15T15:53:56;34.80;;;17.38;;
76786;SDS011;65739;51.482;5.702;2023-02-15T15:56:26;33.78;;;17.30;;
76786;SDS011;65739;51.482;5.702;2023-02-15T15:58:57;33.70;;;16.50;;
76786;SDS011;65739;51.482;5.702;2023-02-15T16:01:27;35.45;;;17.80;;
76786;SDS011;65739;51.482;5.702;2023-02-15T16:03:55;32.42;;;16.92;;
76786;SDS011;65739;51.482;5.702;2023-02-15T16:06:41;35.33;;;17.85;;
76786;SDS011;65739;51.482;5.702;2023-02-15T16:09:20;32.42;;;17.80;;
76786;SDS011;65739;51.482;5.702;2023-02-15T16:11:48;34.28;;;17.17;;
76786;SDS011;65739;51.482;5.702;2023-02-15T16:14:26;31.73;;;16.80;;
76786;SDS011;65739;51.482;5.702;2023-02-15T16:17:07;38.50;;;18.00;;
76786;SDS011;65739;51.482;5.702;2023-02-15T16:19:44;37.45;;;16.30;;
76786;SDS011;65739;51.482;5.702;2023-02-15T16:22:11;32.53;;;17.20;;
76786;SDS011;65739;51.482;5.702;2023-02-15T16:25:03;33.27;;;16.63;;
76786;SDS011;65739;51.482;5.702;2023-02-15T16:27:51;31.80;;;17.08;;
76786;SDS011;65739;51.482;5.702;2023-02-15T16:32:45;36.72;;;17.23;;
76786;SDS011;65739;51.482;5.702;2023-02-15T16:35:14;33.47;;;16.55;;
76786;SDS011;65739;51.482;5.702;2023-02-15T16:37:42;35.22;;;17.60;;
76786;SDS011;65739;51.482;5.702;2023-02-15T16:40:25;36.22;;;17.98;;
76786;SDS011;65739;51.482;5.702;2023-02-15T16:43:20;36.63;;;17.42;;
76786;SDS011;65739;51.482;5.702;2023-02-15T16:45:50;35.95;;;17.77;;
76786;SDS011;65739;51.482;5.702;2023-02-15T16:48:20;32.22;;;17.80;;
76786;SDS011;65739;51.482;5.702;2023-02-15T16:50:50;34.55;;;18.77;;
76786;SDS011;65739;51.482;5.702;2023-02-15T16:53:21;36.92;;;18.77;;
76786;SDS011;65739;51.482;5.702;2023-02-15T16:55:50;34.15;;;17.95;;
76786;SDS011;65739;51.482;5.702;2023-02-15T16:58:29;36.55;;;18.15;;
76786;SDS011;65739;51.482;5.702;2023-02-15T17:01:02;33.67;;;17.17;;
76786;SDS011;65739;51.482;5.702;2023-02-15T17:03:30;38.17;;;18.95;;
76786;SDS011;65739;51.482;5.702;2023-02-15T17:05:57;35.53;;;17.48;;
76786;SDS011;65739;51.482;5.702;2023-02-15T17:08:31;36.53;;;16.88;;
76786;SDS011;65739;51.482;5.702;2023-02-15T17:11:12;34.33;;;18.25;;
76786;SDS011;65739;51.482;5.702;2023-02-15T17:19:14;34.92;;;17.80;;
76786;SDS011;65739;51.482;5.702;2023-02-15T17:21:41;34.22;;;17.52;;
76786;SDS011;65739;51.482;5.702;2023-02-15T17:24:16;34.90;;;17.45;;
76786;SDS011;65739;51.482;5.702;2023-02-15T17:26:55;33.38;;;16.85;;
76786;SDS011;65739;51.482;5.702;2023-02-15T17:29:37;36.53;;;18.95;;
76786;SDS011;65739;51.482;5.702;2023-02-15T17:32:05;37.30;;;18.50;;
76786;SDS011;65739;51.482;5.702;2023-02-15T17:37:25;38.35;;;20.40;;
76786;SDS011;65739;51.482;5.702;2023-02-15T17:39:57;39.35;;;19.17;;
76786;SDS011;65739;51.482;5.702;2023-02-15T17:42:23;42.42;;;19.60;;
76786;SDS011;65739;51.482;5.702;2023-02-15T17:44:49;36.28;;;18.77;;
76786;SDS011;65739;51.482;5.702;2023-02-15T17:47:16;39.80;;;19.27;;
76786;SDS011;65739;51.482;5.702;2023-02-15T17:49:44;42.05;;;19.58;;
76786;SDS011;65739;51.482;5.702;2023-02-15T17:52:13;44.42;;;21.00;;
76786;SDS011;65739;51.482;5.702;2023-02-15T17:54:39;40.63;;;20.17;;
76786;SDS011;65739;51.482;5.702;2023-02-15T17:57:24;38.45;;;19.42;;
76786;SDS011;65739;51.482;5.702;2023-02-15T17:59:50;35.72;;;17.95;;
76786;SDS011;65739;51.482;5.702;2023-02-15T18:02:35;35.80;;;18.65;;
76786;SDS011;65739;51.482;5.702;2023-02-15T18:05:20;35.72;;;18.35;;
76786;SDS011;65739;51.482;5.702;2023-02-15T18:08:09;37.63;;;20.13;;
76786;SDS011;65739;51.482;5.702;2023-02-15T18:10:58;38.50;;;19.98;;
76786;SDS011;65739;51.482;5.702;2023-02-15T18:13:42;39.45;;;20.38;;
76786;SDS011;65739;51.482;5.702;2023-02-15T18:16:15;37.30;;;20.48;;
76786;SDS011;65739;51.482;5.702;2023-02-15T18:18:47;42.10;;;21.75;;
76786;SDS011;65739;51.482;5.702;2023-02-15T18:21:12;41.20;;;20.20;;
76786;SDS011;65739;51.482;5.702;2023-02-15T18:23:38;40.13;;;20.98;;
76786;SDS011;65739;51.482;5.702;2023-02-15T18:26:06;47.60;;;23.40;;
76786;SDS011;65739;51.482;5.702;2023-02-15T18:28:34;44.60;;;22.73;;
76786;SDS011;65739;51.482;5.702;2023-02-15T18:31:00;40.83;;;21.05;;
76786;SDS011;65739;51.482;5.702;2023-02-15T18:33:36;46.50;;;22.95;;
76786;SDS011;65739;51.482;5.702;2023-02-15T18:36:06;47.90;;;23.02;;
76786;SDS011;65739;51.482;5.702;2023-02-15T18:38:36;44.55;;;21.98;;
76786;SDS011;65739;51.482;5.702;2023-02-15T18:41:02;40.15;;;21.77;;
76786;SDS011;65739;51.482;5.702;2023-02-15T18:43:28;46.45;;;22.02;;
76786;SDS011;65739;51.482;5.702;2023-02-15T18:45:54;46.30;;;22.90;;
76786;SDS011;65739;51.482;5.702;2023-02-15T18:48:19;47.80;;;23.55;;
76786;SDS011;65739;51.482;5.702;2023-02-15T18:50:45;45.70;;;23.17;;
76786;SDS011;65739;51.482;5.702;2023-02-15T18:53:15;49.33;;;25.10;;
76786;SDS011;65739;51.482;5.702;2023-02-15T18:55:44;44.45;;;23.25;;
76786;SDS011;65739;51.482;5.702;2023-02-15T18:58:13;44.17;;;24.08;;
76786;SDS011;65739;51.482;5.702;2023-02-15T19:03:08;52.35;;;25.85;;
76786;SDS011;65739;51.482;5.702;2023-02-15T19:05:48;47.92;;;23.67;;
76786;SDS011;65739;51.482;5.702;2023-02-15T19:08:16;48.53;;;23.80;;
76786;SDS011;65739;51.482;5.702;2023-02-15T19:10:43;44.95;;;22.98;;
76786;SDS011;65739;51.482;5.702;2023-02-15T19:13:09;44.22;;;24.42;;
76786;SDS011;65739;51.482;5.702;2023-02-15T19:15:36;46.13;;;24.35;;
76786;SDS011;65739;51.482;5.702;2023-02-15T19:18:02;45.55;;;24.50;;
76786;SDS011;65739;51.482;5.702;2023-02-15T19:20:30;41.28;;;22.85;;
76786;SDS011;65739;51.482;5.702;2023-02-15T19:22:59;49.35;;;24.13;;
76786;SDS011;65739;51.482;5.702;2023-02-15T19:25:26;50.13;;;24.48;;
76786;SDS011;65739;51.482;5.702;2023-02-15T19:27:54;48.28;;;23.38;;
76786;SDS011;65739;51.482;5.702;2023-02-15T19:32:48;47.42;;;24.60;;
76786;SDS011;65739;51.482;5.702;2023-02-15T19:35:15;48.58;;;24.00;;
76786;SDS011;65739;51.482;5.702;2023-02-15T19:37:43;46.58;;;23.73;;
76786;SDS011;65739;51.482;5.702;2023-02-15T19:40:19;49.08;;;25.90;;
76786;SDS011;65739;51.482;5.702;2023-02-15T19:42:53;49.80;;;25.30;;
76786;SDS011;65739;51.482;5.702;2023-02-15T19:45:20;53.38;;;25.60;;
76786;SDS011;65739;51.482;5.702;2023-02-15T19:47:47;51.33;;;26.15;;
76786;SDS011;65739;51.482;5.702;2023-02-15T19:50:16;51.25;;;25.80;;
76786;SDS011;65739;51.482;5.702;2023-02-15T19:52:50;52.97;;;24.77;;
76786;SDS011;65739;51.482;5.702;2023-02-15T19:55:23;50.80;;;25.02;;
76786;SDS011;65739;51.482;5.702;2023-02-15T19:57:49;51.85;;;25.70;;
76786;SDS011;65739;51.482;5.702;2023-02-15T20:00:17;55.08;;;25.85;;
76786;SDS011;65739;51.482;5.702;2023-02-15T20:02:46;55.95;;;26.85;;
76786;SDS011;65739;51.482;5.702;2023-02-15T20:05:12;53.28;;;25.25;;
76786;SDS011;65739;51.482;5.702;2023-02-15T20:07:39;52.80;;;26.65;;
76786;SDS011;65739;51.482;5.702;2023-02-15T20:10:20;51.13;;;26.17;;
76786;SDS011;65739;51.482;5.702;2023-02-15T20:12:48;57.33;;;26.70;;
76786;SDS011;65739;51.482;5.702;2023-02-15T20:15:18;55.00;;;26.85;;
76786;SDS011;65739;51.482;5.702;2023-02-15T20:17:52;54.10;;;26.70;;
76786;SDS011;65739;51.482;5.702;2023-02-15T20:20:18;53.92;;;26.10;;
76786;SDS011;65739;51.482;5.702;2023-02-15T20:22:46;52.88;;;26.48;;
76786;SDS011;65739;51.482;5.702;2023-02-15T20:25:25;51.15;;;26.05;;
76786;SDS011;65739;51.482;5.702;2023-02-15T20:27:51;50.33;;;26.13;;
76786;SDS011;65739;51.482;5.702;2023-02-15T20:30:22;47.65;;;24.73;;
76786;SDS011;65739;51.482;5.702;2023-02-15T20:32:49;50.60;;;25.33;;
76786;SDS011;65739;51.482;5.702;2023-02-15T20:35:17;50.45;;;25.13;;
76786;SDS011;65739;51.482;5.702;2023-02-15T20:37:45;52.90;;;26.23;;
76786;SDS011;65739;51.482;5.702;2023-02-15T20:40:13;53.75;;;25.58;;
76786;SDS011;65739;51.482;5.702;2023-02-15T20:42:44;49.10;;;26.05;;
76786;SDS011;65739;51.482;5.702;2023-02-15T20:45:13;51.58;;;26.33;;
76786;SDS011;65739;51.482;5.702;2023-02-15T20:47:41;53.65;;;26.55;;
76786;SDS011;65739;51.482;5.702;2023-02-15T20:50:12;50.63;;;25.40;;
76786;SDS011;65739;51.482;5.702;2023-02-15T20:52:38;49.30;;;25.85;;
76786;SDS011;65739;51.482;5.702;2023-02-15T20:55:10;54.08;;;27.80;;
76786;SDS011;65739;51.482;5.702;2023-02-15T20:57:41;53.85;;;27.55;;
76786;SDS011;65739;51.482;5.702;2023-02-15T21:00:17;53.35;;;26.67;;
76786;SDS011;65739;51.482;5.702;2023-02-15T21:02:47;51.65;;;26.77;;
76786;SDS011;65739;51.482;5.702;2023-02-15T21:05:18;57.08;;;27.45;;
76786;SDS011;65739;51.482;5.702;2023-02-15T21:07:47;53.15;;;27.08;;
76786;SDS011;65739;51.482;5.702;2023-02-15T21:10:14;53.20;;;26.35;;
76786;SDS011;65739;51.482;5.702;2023-02-15T21:12:42;55.70;;;28.27;;
76786;SDS011;65739;51.482;5.702;2023-02-15T21:15:23;57.70;;;29.05;;
76786;SDS011;65739;51.482;5.702;2023-02-15T21:17:52;58.10;;;29.23;;
76786;SDS011;65739;51.482;5.702;2023-02-15T21:20:24;52.33;;;27.58;;
76786;SDS011;65739;51.482;5.702;2023-02-15T21:22:50;53.88;;;27.25;;
76786;SDS011;65739;51.482;5.702;2023-02-15T21:25:19;54.00;;;27.73;;
76786;SDS011;65739;51.482;5.702;2023-02-15T21:27:50;54.35;;;27.70;;
76786;SDS011;65739;51.482;5.702;2023-02-15T21:30:16;56.03;;;28.45;;
76786;SDS011;65739;51.482;5.702;2023-02-15T21:32:43;54.45;;;27.58;;
76786;SDS011;65739;51.482;5.702;2023-02-15T21:35:12;54.22;;;27.90;;
76786;SDS011;65739;51.482;5.702;2023-02-15T21:37:39;52.10;;;27.30;;
76786;SDS011;65739;51.482;5.702;2023-02-15T21:42:53;50.45;;;25.98;;
76786;SDS011;65739;51.482;5.702;2023-02-15T21:45:38;51.25;;;26.17;;
76786;SDS011;65739;51.482;5.702;2023-02-15T21:48:22;52.67;;;25.60;;
76786;SDS011;65739;51.482;5.702;2023-02-15T21:50:48;52.85;;;26.67;;
76786;SDS011;65739;51.482;5.702;2023-02-15T21:56:02;46.80;;;24.90;;
76786;SDS011;65739;51.482;5.702;2023-02-15T21:58:35;48.85;;;25.70;;
76786;SDS011;65739;51.482;5.702;2023-02-15T22:01:04;48.17;;;25.50;;
76786;SDS011;65739;51.482;5.702;2023-02-15T22:03:32;51.28;;;25.85;;
76786;SDS011;65739;51.482;5.702;2023-02-15T22:05:59;52.20;;;25.65;;
76786;SDS011;65739;51.482;5.702;2023-02-15T22:08:25;51.03;;;26.73;;
76786;SDS011;65739;51.482;5.702;2023-02-15T22:10:55;53.22;;;26.65;;
76786;SDS011;65739;51.482;5.702;2023-02-15T22:13:26;49.55;;;25.25;;
76786;SDS011;65739;51.482;5.702;2023-02-15T22:16:21;51.55;;;26.70;;
76786;SDS011;65739;51.482;5.702;2023-02-15T22:18:49;47.50;;;26.25;;
76786;SDS011;65739;51.482;5.702;2023-02-15T22:21:14;53.72;;;25.85;;
76786;SDS011;65739;51.482;5.702;2023-02-15T22:23:40;47.97;;;26.67;;
76786;SDS011;65739;51.482;5.702;2023-02-15T22:26:22;53.70;;;26.67;;
76786;SDS011;65739;51.482;5.702;2023-02-15T22:28:49;55.35;;;26.45;;
76786;SDS011;65739;51.482;5.702;2023-02-15T22:31:17;53.92;;;27.10;;
76786;SDS011;65739;51.482;5.702;2023-02-15T22:33:45;56.08;;;26.52;;
76786;SDS011;65739;51.482;5.702;2023-02-15T22:39:01;50.30;;;27.02;;
76786;SDS011;65739;51.482;5.702;2023-02-15T22:41:28;51.47;;;26.55;;
76786;SDS011;65739;51.482;5.702;2023-02-15T22:43:58;47.45;;;26.17;;
76786;SDS011;65739;51.482;5.702;2023-02-15T22:46:26;49.97;;;25.67;;
76786;SDS011;65739;51.482;5.702;2023-02-15T22:49:25;49.33;;;26.20;;
76786;SDS011;65739;51.482;5.702;2023-02-15T22:51:56;49.22;;;25.00;;
76786;SDS011;65739;51.482;5.702;2023-02-15T22:54:22;50.90;;;26.30;;
76786;SDS011;65739;51.482;5.702;2023-02-15T22:56:53;52.55;;;26.45;;
76786;SDS011;65739;51.482;5.702;2023-02-15T22:59:23;52.40;;;26.95;;
76786;SDS011;65739;51.482;5.702;2023-02-15T23:01:52;51.33;;;26.30;;
76786;SDS011;65739;51.482;5.702;2023-02-15T23:04:23;55.80;;;27.70;;
76786;SDS011;65739;51.482;5.702;2023-02-15T23:07:16;53.63;;;25.98;;
76786;SDS011;65739;51.482;5.702;2023-02-15T23:10:09;57.70;;;26.98;;
76786;SDS011;65739;51.482;5.702;2023-02-15T23:12:52;50.95;;;26.60;;
76786;SDS011;65739;51.482;5.702;2023-02-15T23:15:45;48.80;;;26.20;;
76786;SDS011;65739;51.482;5.702;2023-02-15T23:18:24;55.50;;;28.42;;
76786;SDS011;65739;51.482;5.702;2023-02-15T23:20:57;50.35;;;26.95;;
76786;SDS011;65739;51.482;5.702;2023-02-15T23:23:43;59.45;;;28.20;;
76786;SDS011;65739;51.482;5.702;2023-02-15T23:29:42;56.55;;;27.15;;
76786;SDS011;65739;51.482;5.702;2023-02-15T23:32:11;53.10;;;26.75;;
76786;SDS011;65739;51.482;5.702;2023-02-15T23:34:38;52.08;;;27.17;;
76786;SDS011;65739;51.482;5.702;2023-02-15T23:37:11;52.22;;;27.40;;
76786;SDS011;65739;51.482;5.702;2023-02-15T23:40:02;49.85;;;26.67;;
76786;SDS011;65739;51.482;5.702;2023-02-15T23:42:46;54.50;;;27.13;;
76786;SDS011;65739;51.482;5.702;2023-02-15T23:45:20;57.08;;;27.92;;
76786;SDS011;65739;51.482;5.702;2023-02-15T23:51:01;56.95;;;26.92;;
76786;SDS011;65739;51.482;5.702;2023-02-15T23:54:04;50.30;;;28.08;;
76786;SDS011;65739;51.482;5.702;2023-02-15T23:56:30;62.17;;;28.60;;
76786;SDS011;65739;51.482;5.702;2023-02-15T23:58:58;52.33;;;28.52;;
